DZH2010 LPPD-DAAG
Flight info
| Callsign | DZH2010 |
|---|---|
| Flight time | N/A |
| Altitude | 33000 |
| Route | BEKUN DCT KOMUT/N0399F240 UM744 BUSEN/N0389F230 UM744 LASIB/N0443F350 M744 CARBO UM744 MOS UA411 ALR G26 ZEM |
| Aircraft | A321/M-SDE3FGHIRWY/LB1 |
Departure
| Time | 2026-05-04 14:37 |
|---|---|
| Airport | João Paulo II Airport (LPPD) |
Arrival
| Time | N/A |
|---|---|
| Airport | Houari Boumediene Airport (DAAG) |
| Time | Latitude | Longitude | Altitude | Speed | Heading |
|---|---|---|---|---|---|
| 2026-05-04 14:06 | 37.74862 | -25.71056 | 275 ft | 0 kts | 22° |
| 2026-05-04 14:31 | 37.74819 | -25.71078 | 276 ft | 2 kts | 22° |
| 2026-05-04 14:32 | 37.74806 | -25.71122 | 271 ft | 4 kts | 111° |
| 2026-05-04 14:32 | 37.74810 | -25.71134 | 271 ft | 0 kts | 111° |
| 2026-05-04 14:34 | 37.74803 | -25.71114 | 271 ft | 5 kts | 111° |
| 2026-05-04 14:35 | 37.74775 | -25.71043 | 271 ft | 14 kts | 136° |
| 2026-05-04 14:35 | 37.74714 | -25.71024 | 274 ft | 0 kts | 180° |
| 2026-05-04 14:36 | 37.74678 | -25.71039 | 271 ft | 15 kts | 213° |
| 2026-05-04 14:36 | 37.74607 | -25.71049 | 272 ft | 8 kts | 116° |
| 2026-05-04 14:36 | 37.74587 | -25.70986 | 271 ft | 31 kts | 111° |
| 2026-05-04 14:36 | 37.74398 | -25.70390 | 256 ft | 112 kts | 112° |
| 2026-05-04 14:37 | 37.74022 | -25.69227 | 365 ft | 163 kts | 110° |
| 2026-05-04 14:37 | 37.73493 | -25.67973 | 1117 ft | 160 kts | 112° |
| 2026-05-04 14:37 | 37.72978 | -25.66754 | 1888 ft | 155 kts | 112° |
| 2026-05-04 14:37 | 37.72493 | -25.65563 | 2505 ft | 152 kts | 113° |
| 2026-05-04 14:38 | 37.72010 | -25.64373 | 2884 ft | 153 kts | 111° |
| 2026-05-04 14:38 | 37.71552 | -25.63168 | 3274 ft | 155 kts | 112° |
| 2026-05-04 14:38 | 37.70880 | -25.61999 | 3434 ft | 178 kts | 136° |
| 2026-05-04 14:38 | 37.69663 | -25.61411 | 3660 ft | 202 kts | 175° |
| 2026-05-04 14:39 | 37.68278 | -25.61870 | 3982 ft | 216 kts | 211° |
| 2026-05-04 14:39 | 37.67304 | -25.63342 | 4323 ft | 225 kts | 251° |
| 2026-05-04 14:39 | 37.67185 | -25.65277 | 4686 ft | 224 kts | 287° |
| 2026-05-04 14:40 | 37.69165 | -25.68396 | 5124 ft | 249 kts | 335° |
| 2026-05-04 14:40 | 37.70788 | -25.69215 | 5536 ft | 255 kts | 352° |
| 2026-05-04 14:40 | 37.72559 | -25.69395 | 6108 ft | 260 kts | 2° |
| 2026-05-04 14:40 | 37.74391 | -25.69435 | 6710 ft | 266 kts | 0° |
| 2026-05-04 14:41 | 37.76214 | -25.69954 | 7322 ft | 276 kts | 336° |
| 2026-05-04 14:41 | 37.77878 | -25.71201 | 7930 ft | 279 kts | 337° |
| 2026-05-04 14:41 | 37.81588 | -25.71616 | 9141 ft | 274 kts | 22° |
| 2026-05-04 14:42 | 37.84492 | -25.68658 | 10315 ft | 278 kts | 62° |
| 2026-05-04 14:42 | 37.85084 | -25.66342 | 10860 ft | 281 kts | 82° |
| 2026-05-04 14:42 | 37.85249 | -25.63790 | 11012 ft | 301 kts | 84° |
| 2026-05-04 14:43 | 37.85386 | -25.61068 | 11138 ft | 319 kts | 84° |
| 2026-05-04 14:43 | 37.85521 | -25.58185 | 11290 ft | 336 kts | 86° |
| 2026-05-04 14:43 | 37.85657 | -25.55201 | 11652 ft | 344 kts | 86° |
| 2026-05-04 14:43 | 37.85798 | -25.52149 | 12122 ft | 349 kts | 85° |
| 2026-05-04 14:44 | 37.85943 | -25.49074 | 12686 ft | 351 kts | 85° |
| 2026-05-04 14:44 | 37.86092 | -25.45973 | 13221 ft | 355 kts | 86° |
| 2026-05-04 14:44 | 37.86243 | -25.42841 | 13726 ft | 359 kts | 86° |
| 2026-05-04 14:44 | 37.86395 | -25.39665 | 14262 ft | 362 kts | 85° |
| 2026-05-04 14:45 | 37.86549 | -25.36478 | 14722 ft | 366 kts | 86° |
| 2026-05-04 14:45 | 37.86707 | -25.33244 | 15190 ft | 369 kts | 86° |
| 2026-05-04 14:45 | 37.86865 | -25.29998 | 15677 ft | 371 kts | 86° |
| 2026-05-04 14:45 | 37.87021 | -25.26716 | 16133 ft | 375 kts | 86° |
| 2026-05-04 14:46 | 37.87175 | -25.23415 | 16589 ft | 378 kts | 86° |
| 2026-05-04 14:46 | 37.87329 | -25.20082 | 17060 ft | 380 kts | 86° |
| 2026-05-04 14:46 | 37.87484 | -25.16721 | 17505 ft | 384 kts | 86° |
| 2026-05-04 14:46 | 37.87640 | -25.13346 | 17959 ft | 386 kts | 86° |
| 2026-05-04 14:47 | 37.87796 | -25.09936 | 18405 ft | 389 kts | 86° |
| 2026-05-04 14:47 | 37.87952 | -25.06498 | 18794 ft | 392 kts | 86° |
| 2026-05-04 14:47 | 37.88110 | -25.03046 | 19163 ft | 395 kts | 86° |
| 2026-05-04 14:47 | 37.88270 | -24.99561 | 19502 ft | 399 kts | 86° |
| 2026-05-04 14:48 | 37.88428 | -24.96042 | 19852 ft | 402 kts | 86° |
| 2026-05-04 14:48 | 37.88584 | -24.92496 | 20202 ft | 405 kts | 86° |
| 2026-05-04 14:48 | 37.88739 | -24.88918 | 20561 ft | 407 kts | 86° |
| 2026-05-04 14:48 | 37.88897 | -24.85326 | 20904 ft | 411 kts | 86° |
| 2026-05-04 14:49 | 37.89053 | -24.81754 | 21264 ft | 413 kts | 87° |
| 2026-05-04 14:49 | 37.89209 | -24.78119 | 21628 ft | 415 kts | 87° |
| 2026-05-04 14:49 | 37.89367 | -24.74449 | 21969 ft | 418 kts | 87° |
| 2026-05-04 14:49 | 37.89525 | -24.70764 | 22339 ft | 420 kts | 87° |
| 2026-05-04 14:50 | 37.89683 | -24.67053 | 22634 ft | 424 kts | 87° |
| 2026-05-04 14:50 | 37.89838 | -24.63309 | 22984 ft | 427 kts | 87° |
| 2026-05-04 14:50 | 37.89991 | -24.59557 | 23332 ft | 429 kts | 87° |
| 2026-05-04 14:50 | 37.90145 | -24.55762 | 23648 ft | 432 kts | 87° |
| 2026-05-04 14:51 | 37.90298 | -24.51966 | 23987 ft | 434 kts | 87° |
| 2026-05-04 14:51 | 37.90453 | -24.48134 | 24235 ft | 437 kts | 87° |
| 2026-05-04 14:51 | 37.90609 | -24.44285 | 24510 ft | 439 kts | 87° |
| 2026-05-04 14:51 | 37.90765 | -24.40416 | 24778 ft | 441 kts | 87° |
| 2026-05-04 14:52 | 37.90923 | -24.36514 | 25019 ft | 444 kts | 87° |
| 2026-05-04 14:52 | 37.91076 | -24.32611 | 25323 ft | 445 kts | 87° |
| 2026-05-04 14:52 | 37.91228 | -24.28677 | 25555 ft | 448 kts | 87° |
| 2026-05-04 14:52 | 37.91378 | -24.24733 | 25888 ft | 449 kts | 87° |
| 2026-05-04 14:53 | 37.91531 | -24.20775 | 26110 ft | 452 kts | 87° |
| 2026-05-04 14:53 | 37.91685 | -24.16799 | 26372 ft | 453 kts | 87° |
| 2026-05-04 14:53 | 37.91838 | -24.12801 | 26656 ft | 455 kts | 87° |
| 2026-05-04 14:53 | 37.91986 | -24.08790 | 26899 ft | 457 kts | 87° |
| 2026-05-04 14:54 | 37.92133 | -24.04755 | 27123 ft | 460 kts | 87° |
| 2026-05-04 14:54 | 37.92279 | -24.00698 | 27368 ft | 462 kts | 87° |
| 2026-05-04 14:54 | 37.92427 | -23.96625 | 27608 ft | 464 kts | 87° |
| 2026-05-04 14:54 | 37.92574 | -23.92536 | 27844 ft | 466 kts | 87° |
| 2026-05-04 14:55 | 37.92720 | -23.88425 | 28067 ft | 468 kts | 87° |
| 2026-05-04 14:55 | 37.92861 | -23.84303 | 28287 ft | 470 kts | 87° |
| 2026-05-04 14:55 | 37.93002 | -23.80152 | 28502 ft | 472 kts | 87° |
| 2026-05-04 14:55 | 37.93145 | -23.75994 | 28713 ft | 474 kts | 87° |
| 2026-05-04 14:56 | 37.93289 | -23.71818 | 28959 ft | 475 kts | 87° |
| 2026-05-04 14:56 | 37.93431 | -23.67633 | 29194 ft | 477 kts | 87° |
| 2026-05-04 14:56 | 37.93572 | -23.63419 | 29401 ft | 479 kts | 87° |
| 2026-05-04 14:56 | 37.93713 | -23.59204 | 29620 ft | 480 kts | 87° |
| 2026-05-04 14:57 | 37.93855 | -23.54976 | 29886 ft | 481 kts | 87° |
| 2026-05-04 14:57 | 37.93994 | -23.50740 | 30194 ft | 481 kts | 87° |
| 2026-05-04 14:57 | 37.94131 | -23.46568 | 30458 ft | 480 kts | 88° |
| 2026-05-04 14:57 | 37.94265 | -23.42347 | 30699 ft | 481 kts | 88° |
| 2026-05-04 14:58 | 37.94397 | -23.38116 | 30946 ft | 480 kts | 88° |
| 2026-05-04 14:58 | 37.94526 | -23.33879 | 31189 ft | 481 kts | 88° |
| 2026-05-04 14:58 | 37.94650 | -23.29650 | 31423 ft | 481 kts | 88° |
| 2026-05-04 14:58 | 37.94776 | -23.25416 | 31661 ft | 481 kts | 88° |
| 2026-05-04 14:59 | 37.94911 | -23.21189 | 31896 ft | 481 kts | 88° |
| 2026-05-04 14:59 | 37.95066 | -23.16951 | 32137 ft | 481 kts | 87° |
| 2026-05-04 14:59 | 37.95418 | -23.08482 | 32610 ft | 481 kts | 87° |
| 2026-05-04 15:00 | 37.95598 | -23.04243 | 32855 ft | 481 kts | 87° |
| 2026-05-04 15:00 | 37.95774 | -23.00011 | 33077 ft | 482 kts | 87° |
| 2026-05-04 15:00 | 37.95946 | -22.95773 | 33293 ft | 482 kts | 87° |
| 2026-05-04 15:01 | 37.96276 | -22.87280 | 33729 ft | 483 kts | 87° |
| 2026-05-04 15:01 | 37.96437 | -22.83037 | 33923 ft | 483 kts | 88° |
| 2026-05-04 15:01 | 37.96594 | -22.78781 | 34087 ft | 484 kts | 88° |
| 2026-05-04 15:01 | 37.96750 | -22.74516 | 34274 ft | 485 kts | 88° |
| 2026-05-04 15:02 | 37.96907 | -22.70242 | 34451 ft | 485 kts | 88° |
| 2026-05-04 15:02 | 37.97063 | -22.65972 | 34639 ft | 485 kts | 88° |
| 2026-05-04 15:02 | 37.97217 | -22.61701 | 34826 ft | 485 kts | 88° |
| 2026-05-04 15:02 | 37.97370 | -22.57447 | 35021 ft | 484 kts | 88° |
| 2026-05-04 15:03 | 37.97522 | -22.53183 | 35203 ft | 484 kts | 88° |
| 2026-05-04 15:03 | 37.97669 | -22.48916 | 35267 ft | 484 kts | 88° |
| 2026-05-04 15:03 | 37.97963 | -22.40398 | 35268 ft | 484 kts | 88° |
| 2026-05-04 15:04 | 37.98254 | -22.31875 | 35272 ft | 484 kts | 88° |
| 2026-05-04 15:04 | 37.98536 | -22.23348 | 35272 ft | 484 kts | 88° |
| 2026-05-04 15:05 | 37.98812 | -22.14832 | 35269 ft | 484 kts | 88° |
| 2026-05-04 15:05 | 37.99083 | -22.06300 | 35269 ft | 484 kts | 88° |
| 2026-05-04 15:06 | 37.99350 | -21.97783 | 35267 ft | 484 kts | 88° |
| 2026-05-04 15:07 | 37.99726 | -21.84983 | 35270 ft | 484 kts | 88° |
| 2026-05-04 15:07 | 37.99974 | -21.76453 | 35277 ft | 485 kts | 88° |
| 2026-05-04 15:08 | 38.00218 | -21.67919 | 35278 ft | 485 kts | 88° |
| 2026-05-04 15:08 | 38.00447 | -21.59366 | 35278 ft | 485 kts | 88° |
| 2026-05-04 15:09 | 38.00681 | -21.50817 | 35261 ft | 485 kts | 89° |
| 2026-05-04 15:09 | 38.00908 | -21.42260 | 35265 ft | 485 kts | 89° |
| 2026-05-04 15:10 | 38.01235 | -21.29422 | 35265 ft | 486 kts | 89° |
| 2026-05-04 15:11 | 38.01545 | -21.16580 | 35266 ft | 486 kts | 89° |
| 2026-05-04 15:11 | 38.01743 | -21.08071 | 35273 ft | 486 kts | 89° |
| 2026-05-04 15:12 | 38.01934 | -20.99497 | 35273 ft | 486 kts | 89° |
| 2026-05-04 15:12 | 38.02120 | -20.90917 | 35268 ft | 486 kts | 89° |
| 2026-05-04 15:13 | 38.02302 | -20.82343 | 35270 ft | 486 kts | 89° |
| 2026-05-04 15:13 | 38.02472 | -20.73766 | 35265 ft | 486 kts | 89° |
| 2026-05-04 15:14 | 38.02641 | -20.65189 | 35263 ft | 487 kts | 89° |
| 2026-05-04 15:14 | 38.02778 | -20.58056 | 35263 ft | 487 kts | 89° |
| 2026-05-04 15:15 | 38.02935 | -20.49474 | 35262 ft | 487 kts | 89° |
| 2026-05-04 15:15 | 38.03086 | -20.40885 | 35270 ft | 487 kts | 89° |
| 2026-05-04 15:16 | 38.03306 | -20.28015 | 35271 ft | 487 kts | 89° |
| 2026-05-04 15:17 | 38.03507 | -20.15146 | 35244 ft | 486 kts | 89° |
| 2026-05-04 15:17 | 38.03687 | -20.02315 | 35248 ft | 487 kts | 89° |
| 2026-05-04 15:18 | 38.03809 | -19.93722 | 35249 ft | 488 kts | 89° |
| 2026-05-04 15:19 | 38.03971 | -19.80811 | 35255 ft | 488 kts | 89° |
| 2026-05-04 15:19 | 38.04119 | -19.67876 | 35255 ft | 489 kts | 89° |
| 2026-05-04 15:20 | 38.04211 | -19.59260 | 35254 ft | 489 kts | 89° |
| 2026-05-04 15:20 | 38.04294 | -19.50642 | 35254 ft | 489 kts | 89° |
| 2026-05-04 15:21 | 38.04376 | -19.42017 | 35263 ft | 488 kts | 89° |
| 2026-05-04 15:22 | 38.04481 | -19.29108 | 35255 ft | 488 kts | 90° |
| 2026-05-04 15:22 | 38.04574 | -19.16209 | 35253 ft | 487 kts | 90° |
| 2026-05-04 15:23 | 38.04627 | -19.07659 | 35258 ft | 487 kts | 90° |
| 2026-05-04 15:23 | 38.04677 | -18.99066 | 35256 ft | 487 kts | 90° |
| 2026-05-04 15:24 | 38.04755 | -18.81907 | 35245 ft | 486 kts | 90° |
| 2026-05-04 15:25 | 38.04788 | -18.73328 | 35217 ft | 487 kts | 90° |
| 2026-05-04 15:26 | 38.04821 | -18.60430 | 35217 ft | 488 kts | 90° |
| 2026-05-04 15:26 | 38.04837 | -18.47491 | 35219 ft | 489 kts | 90° |
| 2026-05-04 15:27 | 38.04837 | -18.34542 | 35226 ft | 489 kts | 90° |
| 2026-05-04 15:28 | 38.04831 | -18.21583 | 35226 ft | 489 kts | 90° |
| 2026-05-04 15:29 | 38.04805 | -18.08634 | 35232 ft | 489 kts | 90° |
| 2026-05-04 15:30 | 38.04688 | -17.78439 | 35237 ft | 489 kts | 90° |
| 2026-05-04 15:31 | 38.04616 | -17.65578 | 35249 ft | 487 kts | 90° |
| 2026-05-04 15:32 | 38.04468 | -17.44119 | 35240 ft | 486 kts | 91° |
| 2026-05-04 15:34 | 38.04272 | -17.22691 | 35214 ft | 487 kts | 91° |
| 2026-05-04 15:34 | 38.04134 | -17.09788 | 35211 ft | 488 kts | 91° |
| 2026-05-04 15:35 | 38.03995 | -16.96871 | 35229 ft | 488 kts | 91° |
| 2026-05-04 15:36 | 38.03838 | -16.83973 | 35228 ft | 487 kts | 91° |
| 2026-05-04 15:36 | 38.03724 | -16.75373 | 35227 ft | 487 kts | 91° |
| 2026-05-04 15:37 | 38.03599 | -16.66786 | 35238 ft | 487 kts | 91° |
| 2026-05-04 15:37 | 38.03476 | -16.58208 | 35234 ft | 486 kts | 91° |
| 2026-05-04 15:38 | 38.03341 | -16.49652 | 35234 ft | 485 kts | 91° |
| 2026-05-04 15:38 | 38.03194 | -16.41101 | 35225 ft | 484 kts | 91° |
| 2026-05-04 15:39 | 38.03047 | -16.32562 | 35220 ft | 484 kts | 91° |
| 2026-05-04 15:40 | 38.02830 | -16.19817 | 35216 ft | 484 kts | 91° |
| 2026-05-04 15:40 | 38.02671 | -16.11286 | 35214 ft | 484 kts | 91° |
| 2026-05-04 15:41 | 38.02505 | -16.02755 | 35213 ft | 484 kts | 91° |
| 2026-05-04 15:41 | 38.02322 | -15.94164 | 35193 ft | 484 kts | 91° |
| 2026-05-04 15:42 | 38.02138 | -15.85676 | 35192 ft | 485 kts | 91° |
| 2026-05-04 15:42 | 38.01957 | -15.77117 | 35191 ft | 486 kts | 91° |
| 2026-05-04 15:43 | 38.01767 | -15.68553 | 35194 ft | 486 kts | 92° |
| 2026-05-04 15:43 | 38.01564 | -15.59978 | 35205 ft | 486 kts | 92° |
| 2026-05-04 15:44 | 38.01360 | -15.51398 | 35205 ft | 487 kts | 92° |
| 2026-05-04 15:44 | 38.01153 | -15.42823 | 35206 ft | 487 kts | 92° |
| 2026-05-04 15:45 | 38.00932 | -15.34247 | 35202 ft | 487 kts | 92° |
| 2026-05-04 15:45 | 38.00711 | -15.25668 | 35207 ft | 487 kts | 92° |
| 2026-05-04 15:46 | 38.00481 | -15.17074 | 35201 ft | 487 kts | 92° |
| 2026-05-04 15:46 | 38.00243 | -15.08497 | 35200 ft | 487 kts | 92° |
| 2026-05-04 15:47 | 38.00124 | -14.99916 | 35202 ft | 487 kts | 85° |